Detalii statie PETRESTI PETRESTI [0000197D]

Toti senzorii

Date Temperatura solului [C]Precipitatii [mm]Voltaj baterie [mV]Leaf Wetness [Min]HC Air temperature [C]HC Relative humidity [%]Punctul de roua [C]
medieminmaxsumaultimatimpmedieminmaxmediemediemin
2020-06-02 07:00:00 0 6688 7.09 6.27 8.25 3.79 0
2020-06-02 08:00:00 0 6668 9.74 8.49 11.23 0 0 0
2020-06-02 09:00:00 0 6718 12.97 11.82 13.97 0 0 0
2020-06-02 10:00:00 0 6728 15.1 14.11 15.65 0 0 0
2020-06-02 11:00:00 0 6738 16.18 15.73 17.1 0 0 0
2020-06-02 12:00:00 0 6864 17.26 15.78 18.61 0 0 0
2020-06-02 13:00:00 0 7176 17.58 16.08 19.14 0 0 0
2020-06-02 14:00:00 0 6874 17.43 16.48 18.57 0 0 0
2020-06-02 15:00:00 0 7148 17.96 17.34 18.64 0 0 0
2020-06-02 16:00:00 0 6816 19 17.54 20.39 0 0 0
2020-06-02 17:00:00 0 7138 19.76 18.79 20.82 0 0 0
2020-06-02 18:00:00 0 7138 18.94 18.39 19.35 0 0 0
2020-06-02 19:00:00 0 6766 15.05 14.35 17.8 0 0 0
2020-06-02 20:00:00 0 6748 14.65 14.45 14.86 0 0 0
2020-06-02 21:00:00 0 6748 13.92 13.38 14.42 0 0 0
2020-06-02 22:00:00 0 6728 12.83 11.79 13.66 7.89 0.1 0
2020-06-02 23:00:00 0 6708 12.2 12.01 12.33 16.49 0.5 0
2020-06-03 00:00:00 0 6708 12.09 11.97 12.22 91.27 0
2020-06-03 01:00:00 0 6620 11.83 11.7 11.93 48.93 2.7 0
2020-06-03 02:00:00 0 6610 11.5 11.14 11.71 15.69 0.1 0
2020-06-03 03:00:00 0 6562 10.34 9.79 10.89 37.14 0
2020-06-03 04:00:00 0 6610 9.17 8.77 9.75 21.43 -1.4 0
2020-06-03 05:00:00 0 6620 8.64 8.26 9.1 27.7 0
2020-06-03 06:00:00 0 6640 8.85 8.72 8.97 33.07 -0.8 0
2020-06-03 07:00:00 0 6678 9.44 8.77 10.18 3.5 0
2020-06-03 08:00:00 0 6600 11.17 10.24 12.09 43.81 0
2020-06-03 09:00:00 0 6650 13.17 12.21 14.17 39.93 0
2020-06-03 10:00:00 0 6630 15.12 14.31 15.88 53.91 5.5 2.5
2020-06-03 11:00:00 0 6708 16.49 15.84 17.4 35.48 4.5 0
2020-06-03 12:00:00 0 6844 17.82 16.94 19.73 55.11 8.5 7.2
2020-06-03 13:00:00 0 6854 19.1 18.37 20.61 47.88 7.6 6.3
2020-06-03 14:00:00 1.4 6718 14.6 11.98 18.33 52.48 0
2020-06-03 15:00:00 4 6688 12.57 12.15 12.77 32.04 2.4 0
2020-06-03 16:00:00 0.2 6942 14.82 13.08 16 3.42 0
2020-06-03 17:00:00 0 6932 17.63 16.37 18.96 12.24 0
2020-06-03 18:00:00 0 6864 18.09 17.22 19.2 69.69 12.2 0
2020-06-03 19:00:00 0 6854 17.16 16.22 18.47 66.39 10.7 0
2020-06-03 20:00:00 0 6756 16.16 14.95 18.32 0 0 0
2020-06-03 21:00:00 0 6776 14.38 13.98 14.86 13.99 0
2020-06-03 22:00:00 0 6718 13.55 12.96 13.95 11.13 0
2020-06-03 23:00:00 0 6756 12.41 11.77 13.14 4.37 0
2020-06-04 00:00:00 0 6756 11.99 11.77 12.14 0 0 0
2020-06-04 01:00:00 1.4 6766 12.37 11.6 13.29 0 0 0
2020-06-04 02:00:00 0 6728 11.98 11.06 12.97 0 0 0
2020-06-04 03:00:00 0 6738 10.23 9.85 10.84 3.78 0
2020-06-04 04:00:00 0 6678 9.46 9.25 9.86 8.33 0
2020-06-04 05:00:00 0 6728 8.82 8.47 9.47 0 0 0
2020-06-04 06:00:00 0.2 6728 8.79 8.63 9 0 0 0